createdAt,value
2019-02-17T00:00:54.917Z,-0.80
2019-02-17T00:06:57.057Z,-0.90
2019-02-17T00:12:59.410Z,-0.90
2019-02-17T00:19:01.544Z,-0.90
2019-02-17T00:25:03.840Z,-0.90
2019-02-17T00:31:06.064Z,-0.90
2019-02-17T00:37:08.263Z,-0.90
2019-02-17T00:43:10.450Z,-1.00
2019-02-17T00:49:14.777Z,-1.00
2019-02-17T00:55:16.977Z,-1.10
2019-02-17T01:01:19.179Z,-1.20
2019-02-17T01:07:21.717Z,-1.30
2019-02-17T01:13:23.893Z,-1.30
2019-02-17T01:19:26.260Z,-1.30
2019-02-17T01:25:28.460Z,-1.30
2019-02-17T01:31:30.701Z,-1.20
2019-02-17T01:37:32.942Z,-1.30
2019-02-17T01:43:35.153Z,-1.40
2019-02-17T01:49:37.402Z,-1.50
2019-02-17T01:55:40.513Z,-1.50
2019-02-17T02:01:42.698Z,-1.50
2019-02-17T02:07:44.958Z,-1.60
2019-02-17T02:13:47.269Z,-1.70
2019-02-17T02:19:49.594Z,-1.80
2019-02-17T02:25:51.787Z,-1.80
2019-02-17T02:31:54.152Z,-1.80
2019-02-17T02:37:56.364Z,-1.80
2019-02-17T02:43:58.546Z,-1.90
2019-02-17T02:50:00.901Z,-1.90
2019-02-17T02:56:03.245Z,-1.90
2019-02-17T03:02:07.679Z,-1.90
2019-02-17T03:08:09.907Z,-1.90
2019-02-17T03:14:12.207Z,-2.00
2019-02-17T03:20:14.502Z,-2.00
2019-02-17T03:26:16.676Z,-2.10
2019-02-17T03:32:18.900Z,-2.10
2019-02-17T03:38:21.165Z,-2.10
2019-02-17T03:44:23.331Z,-2.10
2019-02-17T03:50:25.609Z,-2.10
2019-02-17T03:56:27.850Z,-2.10
2019-02-17T04:02:30.125Z,-2.20
2019-02-17T04:08:34.385Z,-2.20
2019-02-17T04:14:36.554Z,-2.20
2019-02-17T04:20:38.845Z,-2.30
2019-02-17T04:26:41.067Z,-2.40
2019-02-17T04:32:43.331Z,-2.40
2019-02-17T04:38:45.745Z,-2.50
2019-02-17T04:44:47.985Z,-2.50
2019-02-17T04:50:50.204Z,-2.50
2019-02-17T04:56:52.693Z,-2.60
2019-02-17T05:02:55.011Z,-2.60
2019-02-17T05:08:57.204Z,-2.60
2019-02-17T05:15:01.600Z,-2.60
2019-02-17T05:21:03.850Z,-2.70
2019-02-17T05:27:06.246Z,-2.70
2019-02-17T05:33:08.776Z,-2.70
2019-02-17T05:39:10.947Z,-2.70
2019-02-17T05:45:13.260Z,-2.80
2019-02-17T05:51:15.536Z,-2.80
2019-02-17T05:57:17.720Z,-2.80
2019-02-17T06:03:20.037Z,-2.90
2019-02-17T06:09:22.299Z,-2.90
2019-02-17T06:15:24.550Z,-2.90
2019-02-17T06:21:27.255Z,-2.90
2019-02-17T06:27:29.378Z,-2.80
2019-02-17T06:33:31.615Z,-2.80
2019-02-17T06:39:33.893Z,-2.80
2019-02-17T06:45:36.225Z,-2.70
2019-02-17T06:51:38.479Z,-2.60
2019-02-17T06:57:42.173Z,-2.60
2019-02-17T07:03:45.885Z,-2.40
2019-02-17T07:09:48.035Z,-2.30
2019-02-17T07:15:53.195Z,-2.10
2019-02-17T07:21:55.922Z,-1.90
2019-02-17T07:27:58.373Z,-1.70
2019-02-17T07:34:00.625Z,-1.40
2019-02-17T07:40:03.311Z,-1.10
2019-02-17T07:46:05.627Z,-0.10
2019-02-17T07:52:08.002Z,1.60
2019-02-17T07:58:10.325Z,3.10
2019-02-17T08:04:14.576Z,4.50
2019-02-17T08:10:16.794Z,5.70
2019-02-17T08:16:18.972Z,6.80
2019-02-17T08:22:21.309Z,7.70
2019-02-17T08:28:25.640Z,8.60
2019-02-17T08:34:27.911Z,9.50
2019-02-17T08:40:30.099Z,10.60
2019-02-17T08:46:32.363Z,10.70
2019-02-17T08:52:34.829Z,11.20
2019-02-17T08:58:37.163Z,11.90
2019-02-17T09:04:39.411Z,11.90
2019-02-17T09:10:41.761Z,11.90
2019-02-17T09:16:43.943Z,12.20
2019-02-17T09:22:46.212Z,13.00
2019-02-17T09:28:50.566Z,13.50
2019-02-17T09:34:53.022Z,13.70
2019-02-17T09:40:55.174Z,13.80
2019-02-17T09:46:57.398Z,13.70
2019-02-17T09:52:59.538Z,13.70
2019-02-17T09:59:01.806Z,13.40
2019-02-17T10:05:04.163Z,13.30
2019-02-17T10:11:06.398Z,13.10
2019-02-17T10:17:08.488Z,13.00
2019-02-17T10:23:10.641Z,13.20
2019-02-17T10:29:12.995Z,13.20
2019-02-17T10:35:15.160Z,13.00
2019-02-17T10:41:17.727Z,13.10
2019-02-17T10:47:19.988Z,13.00
2019-02-17T10:53:22.243Z,13.00
2019-02-17T10:59:24.401Z,13.00
2019-02-17T11:05:26.532Z,12.90
2019-02-17T11:11:28.839Z,12.90
2019-02-17T11:17:31.092Z,12.30
2019-02-17T11:23:33.460Z,12.00
2019-02-17T11:29:37.957Z,11.80
2019-02-17T11:35:40.222Z,12.00
2019-02-17T11:41:42.348Z,11.90
2019-02-17T11:47:44.668Z,11.90
2019-02-17T11:53:46.944Z,11.90
2019-02-17T11:59:49.115Z,11.90
2019-02-17T12:05:51.507Z,10.90
2019-02-17T12:11:53.689Z,10.90
2019-02-17T12:17:55.959Z,10.90
2019-02-17T12:24:12.111Z,11.00
2019-02-17T12:30:14.492Z,10.80
2019-02-17T12:36:18.875Z,10.90
2019-02-17T12:42:21.350Z,11.00
2019-02-17T12:48:23.599Z,11.20
2019-02-17T12:54:29.066Z,11.40
2019-02-17T13:00:29.873Z,11.40
2019-02-17T13:06:32.045Z,11.50
2019-02-17T13:12:34.381Z,11.70
2019-02-17T13:18:36.541Z,11.80
2019-02-17T13:24:38.774Z,12.10
2019-02-17T13:30:40.895Z,12.00
2019-02-17T13:36:43.084Z,12.00
2019-02-17T13:42:47.062Z,12.10
2019-02-17T13:48:49.320Z,12.20
2019-02-17T13:54:51.551Z,12.30
2019-02-17T14:00:53.704Z,12.40
2019-02-17T14:06:55.834Z,12.60
2019-02-17T14:12:58.872Z,12.70
2019-02-17T14:19:01.014Z,12.60
2019-02-17T14:25:03.231Z,12.70
2019-02-17T14:31:05.475Z,12.80
2019-02-17T14:37:07.610Z,12.70
2019-02-17T14:43:11.864Z,12.70
2019-02-17T14:49:14.196Z,12.80
2019-02-17T14:55:16.479Z,12.70
2019-02-17T15:01:18.606Z,12.60
2019-02-17T15:07:21.095Z,12.60
2019-02-17T15:13:24.643Z,12.60
2019-02-17T15:19:27.086Z,12.50
2019-02-17T15:25:29.291Z,12.30
2019-02-17T15:31:31.605Z,12.20
2019-02-17T15:37:33.854Z,12.00
2019-02-17T15:43:36.022Z,11.80
2019-02-17T15:49:39.960Z,11.60
2019-02-17T15:55:42.490Z,11.30
2019-02-17T16:01:44.656Z,10.90
2019-02-17T16:07:47.026Z,10.40
2019-02-17T16:13:49.391Z,9.90
2019-02-17T16:19:51.575Z,9.50
2019-02-17T16:25:53.821Z,9.00
2019-02-17T16:31:56.276Z,8.40
2019-02-17T16:37:58.408Z,8.00
2019-02-17T16:44:07.248Z,7.60
2019-02-17T16:50:13.649Z,7.20
2019-02-17T16:56:16.078Z,6.70
2019-02-17T17:02:18.382Z,6.30
2019-02-17T17:08:20.623Z,6.00
2019-02-17T17:14:24.155Z,5.60
2019-02-17T17:20:26.431Z,5.40
2019-02-17T17:26:28.724Z,5.10
2019-02-17T17:32:31.019Z,4.80
2019-02-17T17:38:35.223Z,4.50
2019-02-17T17:44:37.672Z,4.40
2019-02-17T17:50:42.052Z,4.20
2019-02-17T17:56:44.398Z,4.00
2019-02-17T18:02:46.810Z,3.80
2019-02-17T18:08:49.116Z,3.60
2019-02-17T18:14:52.385Z,3.50
2019-02-17T18:20:55.822Z,3.40
2019-02-17T18:26:58.096Z,3.20
2019-02-17T18:33:00.443Z,3.10
2019-02-17T18:39:03.733Z,3.10
2019-02-17T18:45:07.601Z,3.00
2019-02-17T18:51:13.017Z,3.00
2019-02-17T18:57:15.283Z,3.00
2019-02-17T19:03:20.343Z,2.90
2019-02-17T19:09:22.797Z,2.80
2019-02-17T19:15:25.240Z,2.80
2019-02-17T19:21:29.492Z,2.70
2019-02-17T19:27:31.754Z,2.60
2019-02-17T19:33:34.129Z,2.60
2019-02-17T19:39:36.488Z,2.50
2019-02-17T19:45:38.759Z,2.40
2019-02-17T19:51:43.236Z,2.30
2019-02-17T19:57:45.469Z,2.20
2019-02-17T20:03:52.200Z,2.20
2019-02-17T20:09:55.554Z,2.10
2019-02-17T20:15:57.744Z,2.00
2019-02-17T20:22:00.076Z,1.90
2019-02-17T20:28:02.648Z,1.80
2019-02-17T20:34:04.919Z,1.70
2019-02-17T20:40:08.302Z,1.60
2019-02-17T20:46:10.569Z,1.60
2019-02-17T20:52:14.598Z,1.60
2019-02-17T20:58:16.982Z,1.50
2019-02-17T21:04:19.367Z,1.50
2019-02-17T21:10:21.731Z,1.40
2019-02-17T21:16:25.053Z,1.40
2019-02-17T21:22:27.388Z,1.40
2019-02-17T21:28:29.819Z,1.20
2019-02-17T21:34:32.059Z,1.10
2019-02-17T21:40:34.217Z,0.90
2019-02-17T21:46:36.502Z,0.90
2019-02-17T21:52:42.111Z,0.80
2019-02-17T21:58:45.724Z,0.60
2019-02-17T22:04:47.987Z,0.60
2019-02-17T22:10:50.169Z,0.60
2019-02-17T22:16:52.282Z,0.50
2019-02-17T22:22:54.543Z,0.50
2019-02-17T22:28:56.824Z,0.40
2019-02-17T22:34:59.028Z,0.20
2019-02-17T22:41:01.259Z,0.20
2019-02-17T22:47:03.390Z,0.10
2019-02-17T22:53:05.743Z,0.10
2019-02-17T22:59:10.004Z,0.10
2019-02-17T23:05:12.580Z,0.20
2019-02-17T23:11:14.735Z,0.10
2019-02-17T23:17:16.892Z,0.10
2019-02-17T23:23:19.025Z,0.10
2019-02-17T23:29:21.218Z,0.10
2019-02-17T23:35:23.348Z,0.10
2019-02-17T23:41:25.671Z,0.10
2019-02-17T23:47:27.842Z,0.00
2019-02-17T23:53:30.046Z,0.00
2019-02-17T23:59:32.291Z,-0.10
